Time;durP1;ratioP1;P1;durP2;ratioP2;P2;SDS_P1;SDS_P2;PMS_P1;PMS_P2;Temp;Humidity;BMP_temperature;BMP_pressure;BME280_temperature;BME280_humidity;BME280_pressure;Samples;Min_cycle;Max_cycle;Signal;HPM_P1;HPM_P2
2021/03/26 00:00:00;;;;;;;2.90;1.75;;;17.70;57.40;;;;;;10455007;28;20104;-62
2021/03/26 00:05:01;;;;;;;2.35;1.88;;;17.80;57.40;;;;;;10483370;28;20448;-61
2021/03/26 00:10:08;;;;;;;3.42;1.70;;;17.80;57.30;;;;;;10470192;28;20039;-61
2021/03/26 00:15:11;;;;;;;2.42;1.40;;;17.80;57.30;;;;;;10456150;28;20040;-62
2021/03/26 00:20:12;;;;;;;3.53;1.77;;;17.80;57.30;;;;;;10462435;28;20040;-62
2021/03/26 00:25:14;;;;;;;4.13;1.98;;;17.80;57.30;;;;;;10480875;28;20459;-61
2021/03/26 00:30:17;;;;;;;5.05;2.03;;;17.80;57.30;;;;;;10480190;28;20048;-62
2021/03/26 00:35:21;;;;;;;3.20;1.90;;;17.80;57.30;;;;;;10483541;28;20435;-61
2021/03/26 00:40:23;;;;;;;3.42;1.98;;;17.80;57.30;;;;;;10482053;28;20028;-62
2021/03/26 00:45:33;;;;;;;2.35;1.73;;;17.80;57.30;;;;;;10484661;28;20613;-62
2021/03/26 00:50:44;;;;;;;4.20;2.35;;;17.80;57.20;;;;;;10499623;28;20044;-61
2021/03/26 00:55:45;;;;;;;2.92;1.40;;;17.80;57.20;;;;;;10472910;28;20371;-60
2021/03/26 01:00:46;;;;;;;3.67;2.15;;;17.80;57.20;;;;;;10461151;28;20112;-62
2021/03/26 01:05:53;;;;;;;2.60;1.70;;;17.80;57.20;;;;;;10460722;28;20108;-62
2021/03/26 01:11:01;;;;;;;3.90;1.90;;;17.80;57.20;;;;;;10480920;28;20473;-62
2021/03/26 01:16:03;;;;;;;3.63;1.90;;;17.80;57.10;;;;;;10491073;28;20040;-61
2021/03/26 01:21:06;;;;;;;3.83;2.15;;;17.80;57.20;;;;;;10486972;28;20520;-62
2021/03/26 01:26:06;;;;;;;3.53;1.90;;;17.80;57.10;;;;;;10476287;28;20033;-62
2021/03/26 01:31:07;;;;;;;2.83;1.77;;;17.80;57.20;;;;;;10462858;28;20039;-61
2021/03/26 01:36:08;;;;;;;3.20;2.50;;;17.80;57.20;;;;;;10474185;28;20484;-62
2021/03/26 01:41:26;;;;;;;2.38;1.55;;;17.80;57.10;;;;;;10473456;28;20044;-62
2021/03/26 01:46:27;;;;;;;5.25;2.22;;;17.80;57.10;;;;;;10459268;28;20059;-62
2021/03/26 01:51:44;;;;;;;3.63;2.40;;;17.80;57.10;;;;;;10458927;28;20029;-61
2021/03/26 01:56:45;;;;;;;3.85;2.30;;;17.80;57.10;;;;;;10473861;28;20040;-62
2021/03/26 02:01:52;;;;;;;5.03;2.13;;;17.80;57.20;;;;;;10498773;28;20032;-61
2021/03/26 02:06:55;;;;;;;3.17;2.40;;;17.80;57.10;;;;;;10468984;28;20396;-61
2021/03/26 02:12:08;;;;;;;2.65;1.80;;;17.80;57.10;;;;;;10488081;28;20039;-62
2021/03/26 02:17:18;;;;;;;3.58;1.83;;;17.80;57.10;;;;;;10469743;28;20041;-61
2021/03/26 02:22:21;;;;;;;3.80;2.28;;;17.80;57.20;;;;;;10458184;28;20679;-61
2021/03/26 02:27:31;;;;;;;2.28;1.60;;;17.80;57.20;;;;;;10477105;28;20025;-62
2021/03/26 02:32:37;;;;;;;3.03;2.10;;;17.80;57.20;;;;;;10458171;28;20116;-61
2021/03/26 02:37:50;;;;;;;3.50;2.10;;;17.80;57.20;;;;;;10472346;28;20024;-61
2021/03/26 02:43:08;;;;;;;3.47;2.38;;;17.80;57.20;;;;;;10447076;28;20033;-61
2021/03/26 02:48:21;;;;;;;3.22;2.03;;;17.80;57.20;;;;;;10455861;28;20086;-61
2021/03/26 02:53:48;;;;;;;4.13;2.17;;;17.70;57.10;;;;;;10455604;28;20113;-61
2021/03/26 02:58:56;;;;;;;3.22;2.25;;;17.80;57.10;;;;;;10444633;28;20041;-62
2021/03/26 03:04:16;;;;;;;3.58;2.15;;;17.80;57.10;;;;;;10457848;28;20052;-61
2021/03/26 03:09:17;;;;;;;3.50;2.63;;;17.70;57.00;;;;;;10455522;28;20037;-61
2021/03/26 03:14:32;;;;;;;3.15;2.13;;;17.70;57.00;;;;;;10454750;28;20107;-62
2021/03/26 03:19:53;;;;;;;3.28;1.80;;;17.80;57.10;;;;;;10469265;28;20032;-61
2021/03/26 03:25:00;;;;;;;4.35;2.55;;;17.70;57.10;;;;;;10457466;28;20055;-61
2021/03/26 03:30:10;;;;;;;5.65;2.28;;;17.70;57.00;;;;;;10475549;28;20080;-62
2021/03/26 03:35:33;;;;;;;3.55;1.85;;;17.70;57.10;;;;;;10463240;28;20060;-62
2021/03/26 03:41:19;;;;;;;3.60;2.22;;;17.70;57.10;;;;;;10482378;28;20520;-61
2021/03/26 03:46:40;;;;;;;3.13;2.35;;;17.80;57.10;;;;;;10466633;28;20049;-61
2021/03/26 03:51:49;;;;;;;2.47;1.67;;;17.70;57.10;;;;;;10442724;28;20525;-61
2021/03/26 03:57:05;;;;;;;2.65;1.70;;;17.70;57.10;;;;;;10475364;28;20115;-62
2021/03/26 04:02:46;;;;;;;2.30;1.73;;;17.70;57.10;;;;;;10462562;28;20374;-62
2021/03/26 04:08:20;;;;;;;3.95;2.53;;;17.70;57.10;;;;;;10494519;28;20040;-61
2021/03/26 04:13:27;;;;;;;2.65;1.83;;;17.70;57.10;;;;;;10504647;28;20037;-61
2021/03/26 04:18:54;;;;;;;3.10;1.83;;;17.80;57.20;;;;;;10471663;28;20036;-62
2021/03/26 04:24:09;;;;;;;3.47;2.28;;;17.80;57.20;;;;;;10481584;28;20052;-60
2021/03/26 04:29:50;;;;;;;3.03;2.05;;;17.70;57.20;;;;;;10488321;28;20041;-61
2021/03/26 04:34:53;;;;;;;2.28;1.60;;;17.70;57.20;;;;;;10465604;28;20039;-61
2021/03/26 04:40:02;;;;;;;2.47;1.90;;;17.70;57.20;;;;;;10480419;28;20029;-61
2021/03/26 04:45:27;;;;;;;4.20;2.42;;;17.70;57.20;;;;;;10469957;28;20115;-61
2021/03/26 04:50:53;;;;;;;3.55;1.92;;;17.70;57.20;;;;;;10502310;28;20037;-61
2021/03/26 04:56:04;;;;;;;2.90;1.73;;;17.80;57.30;;;;;;10480091;28;20075;-61
2021/03/26 05:01:15;;;;;;;3.40;2.00;;;17.70;57.90;;;;;;10457996;28;20045;-60
2021/03/26 05:06:28;;;;;;;2.42;1.65;;;17.70;57.30;;;;;;10458884;28;20039;-62
2021/03/26 05:11:36;;;;;;;2.83;1.83;;;17.70;57.30;;;;;;10460660;28;20033;-61
2021/03/26 05:16:58;;;;;;;4.13;2.40;;;17.70;57.30;;;;;;10464064;28;20021;-61
2021/03/26 05:22:45;;;;;;;3.55;1.98;;;17.80;57.30;;;;;;10476978;28;20041;-60
2021/03/26 05:27:47;;;;;;;2.75;1.80;;;17.70;57.20;;;;;;10473669;28;20043;-61
2021/03/26 05:32:56;;;;;;;2.78;1.70;;;17.70;57.20;;;;;;10478609;28;20358;-61
2021/03/26 05:38:06;;;;;;;3.20;2.17;;;17.80;57.30;;;;;;10475949;28;20052;-61
2021/03/26 05:43:52;;;;;;;2.83;1.80;;;17.70;57.20;;;;;;10488293;28;20039;-61
2021/03/26 05:49:29;;;;;;;2.72;1.88;;;17.80;57.20;;;;;;10452563;28;20507;-62
2021/03/26 05:54:48;;;;;;;3.25;2.22;;;17.70;57.20;;;;;;10490252;28;20536;-60
2021/03/26 06:00:42;;;;;;;5.35;2.13;;;17.70;57.20;;;;;;10457873;28;20071;-63
2021/03/26 06:06:03;;;;;;;5.88;3.00;;;17.70;57.40;;;;;;10458200;28;20032;-62
2021/03/26 06:11:39;;;;;;;7.28;3.45;;;17.70;57.10;;;;;;10452076;28;20029;-60
2021/03/26 06:17:05;;;;;;;8.07;2.20;;;17.80;59.40;;;;;;10457580;28;20090;-61
2021/03/26 06:22:31;;;;;;;6.60;2.65;;;17.80;59.60;;;;;;10454323;28;20037;-61
2021/03/26 06:28:02;;;;;;;3.65;2.20;;;17.80;59.60;;;;;;10454796;28;20033;-62
2021/03/26 06:33:45;;;;;;;4.72;2.42;;;17.80;60.10;;;;;;10473300;28;20688;-67
2021/03/26 06:39:09;;;;;;;6.88;2.10;;;17.80;59.60;;;;;;10418523;28;20576;-62
2021/03/26 06:44:49;;;;;;;11.90;3.22;;;17.70;59.80;;;;;;10461091;28;20040;-60
2021/03/26 06:50:38;;;;;;;8.55;3.45;;;17.70;60.10;;;;;;10456335;28;20090;-60
2021/03/26 06:55:48;;;;;;;12.85;3.45;;;17.70;60.30;;;;;;10450294;28;20426;-60
2021/03/26 07:01:35;;;;;;;9.95;3.35;;;17.70;60.10;;;;;;10455075;28;20037;-60
2021/03/26 07:07:06;;;;;;;20.98;5.22;;;17.60;60.80;;;;;;10470127;28;20111;-60
2021/03/26 07:12:59;;;;;;;26.88;5.50;;;17.60;61.50;;;;;;10453647;28;20067;-60
2021/03/26 07:18:31;;;;;;;15.35;3.78;;;17.60;61.50;;;;;;10454321;28;20040;-60
2021/03/26 07:24:26;;;;;;;18.48;4.20;;;17.70;60.40;;;;;;10454068;28;20060;-61
2021/03/26 07:29:45;;;;;;;10.82;3.90;;;17.80;60.30;;;;;;10455467;28;20123;-60
2021/03/26 07:35:02;;;;;;;9.68;3.92;;;17.90;60.80;;;;;;10463608;28;20056;-60
2021/03/26 07:40:36;;;;;;;13.43;4.50;;;17.90;61.10;;;;;;10456996;28;20389;-61
2021/03/26 07:45:57;;;;;;;12.35;3.13;;;18.00;61.40;;;;;;10454463;28;20043;-62
2021/03/26 07:51:04;;;;;;;10.35;3.38;;;18.00;61.30;;;;;;10453131;28;20114;-60
2021/03/26 07:57:01;;;;;;;12.43;3.42;;;18.00;61.00;;;;;;10450014;28;20033;-59
2021/03/26 08:02:21;;;;;;;9.88;3.30;;;18.10;60.70;;;;;;10435533;28;20044;-59
2021/03/26 08:08:03;;;;;;;;;;;18.10;60.70;;;;;;10453447;28;20086;-60
2021/03/26 08:13:19;;;;;;;11.48;3.60;;;18.10;60.80;;;;;;10471936;28;19924;-58
2021/03/26 08:19:01;;;;;;;8.60;2.85;;;18.10;62.00;;;;;;10459811;28;20029;-60
2021/03/26 08:25:04;;;;;;;12.95;4.65;;;18.10;62.00;;;;;;10475093;28;20131;-61
2021/03/26 08:30:25;;;;;;;15.10;4.05;;;18.10;62.40;;;;;;10408670;28;20043;-61
2021/03/26 08:35:56;;;;;;;14.65;4.10;;;18.00;62.30;;;;;;10453705;28;20102;-62
2021/03/26 08:41:32;;;;;;;12.27;4.25;;;18.00;62.10;;;;;;10471322;28;20057;-60
2021/03/26 08:46:39;;;;;;;9.40;3.90;;;18.10;61.80;;;;;;10476667;28;20051;-59
2021/03/26 08:52:26;;;;;;;10.75;4.43;;;18.10;62.20;;;;;;10459128;28;20087;-59
2021/03/26 08:58:02;;;;;;;12.10;4.47;;;18.10;62.20;;;;;;10459715;28;20488;-58
2021/03/26 09:03:26;;;;;;;11.10;4.72;;;18.10;61.60;;;;;;10456575;28;20036;-58
2021/03/26 09:09:25;;;;;;;14.98;4.25;;;18.10;61.80;;;;;;10446577;28;20546;-60
2021/03/26 09:14:38;;;;;;;11.63;4.38;;;18.10;62.20;;;;;;10457336;28;20045;-61
2021/03/26 09:19:58;;;;;;;11.05;4.18;;;18.10;62.30;;;;;;10460567;28;20029;-61
2021/03/26 09:25:26;;;;;;;;;;;18.10;61.20;;;;;;10481711;28;21027;-60
2021/03/26 09:30:31;;;;;;;6.80;3.47;;;18.00;61.30;;;;;;10457030;28;20580;-60
2021/03/26 09:35:38;;;;;;;11.30;4.82;;;18.00;61.20;;;;;;10458979;28;20112;-60
2021/03/26 09:41:22;;;;;;;9.90;4.35;;;18.00;61.20;;;;;;10473395;28;20501;-60
2021/03/26 09:46:57;;;;;;;7.65;4.30;;;18.00;61.20;;;;;;10451464;28;20504;-61
2021/03/26 09:52:12;;;;;;;5.90;3.80;;;18.00;61.10;;;;;;10460043;28;20047;-61
2021/03/26 09:57:25;;;;;;;5.53;3.72;;;18.00;61.00;;;;;;10455216;28;20103;-61
2021/03/26 10:03:16;;;;;;;7.13;4.20;;;18.00;61.00;;;;;;10457284;28;20155;-61
2021/03/26 10:14:15;;;;;;;6.90;4.47;;;17.80;60.90;;;;;;10458694;28;20037;-59
2021/03/26 10:19:25;;;;;;;7.93;3.47;;;17.80;61.00;;;;;;10457811;28;20031;-60
2021/03/26 10:24:36;;;;;;;6.70;3.83;;;17.80;61.60;;;;;;10456465;28;20361;-61
2021/03/26 10:30:03;;;;;;;5.78;4.20;;;17.70;61.00;;;;;;10460666;28;20041;-60
2021/03/26 10:35:26;;;;;;;11.43;4.82;;;17.70;61.00;;;;;;10456898;28;20032;-59
2021/03/26 10:40:36;;;;;;;10.38;4.07;;;17.70;60.60;;;;;;10478834;28;20056;-58
2021/03/26 10:45:43;;;;;;;8.00;4.20;;;17.70;61.00;;;;;;10454963;28;20111;-60
2021/03/26 10:51:36;;;;;;;8.82;4.47;;;17.80;61.00;;;;;;10456142;28;20033;-60
2021/03/26 10:57:17;;;;;;;8.35;4.20;;;17.80;61.50;;;;;;10471318;28;20036;-60
2021/03/26 11:02:45;;;;;;;18.25;4.45;;;17.80;62.30;;;;;;10455457;28;20036;-60
2021/03/26 11:08:17;;;;;;;10.85;4.28;;;17.90;62.60;;;;;;10484288;28;20033;-59
2021/03/26 11:13:44;;;;;;;17.80;4.88;;;17.90;62.40;;;;;;10471008;28;20521;-57
2021/03/26 11:19:03;;;;;;;11.18;4.38;;;17.90;63.10;;;;;;10455050;28;20035;-59
2021/03/26 11:24:07;;;;;;;14.52;3.95;;;17.90;62.30;;;;;;10454532;28;20052;-59
2021/03/26 11:29:23;;;;;;;13.05;4.10;;;17.90;62.50;;;;;;10458057;28;20393;-59
2021/03/26 11:34:49;;;;;;;13.68;3.83;;;17.90;62.70;;;;;;10452492;28;20028;-60
2021/03/26 11:40:14;;;;;;;11.43;3.95;;;17.90;63.00;;;;;;10470748;28;20028;-60
2021/03/26 11:45:55;;;;;;;10.25;4.35;;;17.90;63.00;;;;;;10453604;28;20033;-59
2021/03/26 11:51:38;;;;;;;17.75;4.85;;;17.90;63.10;;;;;;10454726;28;20481;-59
2021/03/26 11:56:38;;;;;;;6.65;3.47;;;17.90;63.00;;;;;;10491356;28;20384;-59
2021/03/26 12:02:28;;;;;;;10.13;4.28;;;18.00;62.90;;;;;;10462049;28;20124;-59
2021/03/26 12:07:56;;;;;;;8.18;4.10;;;18.00;62.70;;;;;;10453703;28;20037;-60
2021/03/26 12:13:17;;;;;;;12.50;3.88;;;17.90;63.00;;;;;;10457570;28;20029;-59
2021/03/26 12:18:29;;;;;;;15.93;4.13;;;18.00;63.00;;;;;;10460384;28;20021;-60
2021/03/26 12:23:38;;;;;;;10.45;3.40;;;18.10;63.20;;;;;;10461515;28;20461;-59
2021/03/26 12:28:54;;;;;;;11.13;3.90;;;18.00;62.90;;;;;;10460591;28;20032;-58
2021/03/26 12:34:20;;;;;;;8.55;3.53;;;18.10;62.90;;;;;;10458989;28;20023;-60
2021/03/26 12:39:42;;;;;;;16.02;3.85;;;18.10;62.90;;;;;;10461054;28;20036;-60
2021/03/26 12:44:54;;;;;;;15.85;3.40;;;18.10;63.00;;;;;;10459368;28;20028;-58
2021/03/26 12:50:18;;;;;;;22.50;4.45;;;18.00;62.60;;;;;;10475558;28;20029;-61
2021/03/26 12:55:33;;;;;;;9.70;3.22;;;18.00;62.30;;;;;;10473892;28;20469;-62
2021/03/26 13:01:01;;;;;;;15.70;3.40;;;18.00;62.20;;;;;;10460053;28;20021;-62
2021/03/26 13:06:25;;;;;;;7.88;2.83;;;18.10;62.20;;;;;;10459547;28;20090;-61
2021/03/26 13:11:40;;;;;;;9.25;3.13;;;18.10;62.00;;;;;;10457100;28;20044;-63
2021/03/26 13:16:53;;;;;;;10.30;3.35;;;18.10;61.90;;;;;;10459084;28;20022;-62
2021/03/26 13:22:13;;;;;;;8.85;3.47;;;18.10;61.30;;;;;;10481270;28;20048;-61
2021/03/26 13:27:20;;;;;;;10.65;3.55;;;18.10;62.40;;;;;;10469032;28;20469;-60
2021/03/26 13:32:26;;;;;;;7.93;3.55;;;18.10;62.00;;;;;;10464574;28;20433;-61
2021/03/26 13:37:32;;;;;;;19.83;4.85;;;18.10;61.70;;;;;;10472317;28;20121;-61
2021/03/26 13:42:41;;;;;;;19.77;4.47;;;18.10;63.40;;;;;;10455828;28;20099;-59
2021/03/26 13:47:54;;;;;;;20.95;4.60;;;18.10;63.40;;;;;;10470924;28;20021;-60
2021/03/26 13:52:54;;;;;;;14.05;4.63;;;18.20;63.30;;;;;;10454967;28;20040;-60
2021/03/26 13:58:16;;;;;;;26.10;5.70;;;18.10;63.60;;;;;;10458200;28;20374;-61
2021/03/26 14:03:42;;;;;;;19.92;4.57;;;18.10;64.00;;;;;;10456580;28;20474;-59
2021/03/26 14:09:12;;;;;;;11.15;4.35;;;18.10;64.90;;;;;;10456679;28;20036;-61
2021/03/26 14:14:13;;;;;;;;;;;18.20;64.50;;;;;;10439165;28;20083;-61
2021/03/26 14:19:55;;;;;;;24.23;5.68;;;18.20;64.20;;;;;;10457282;28;19917;-59
2021/03/26 14:24:59;;;;;;;16.05;3.92;;;18.40;65.90;;;;;;10454267;28;20495;-60
2021/03/26 14:30:17;;;;;;;20.77;5.00;;;18.70;65.70;;;;;;10455895;28;20025;-61
2021/03/26 14:35:33;;;;;;;17.13;3.83;;;18.60;64.50;;;;;;10453687;28;20024;-60
2021/03/26 14:40:34;;;;;;;26.45;4.82;;;18.70;65.30;;;;;;10457560;28;20025;-63
2021/03/26 14:45:44;;;;;;;21.25;4.10;;;18.50;65.50;;;;;;10456112;28;20031;-62
2021/03/26 14:51:00;;;;;;;28.27;4.93;;;18.50;65.70;;;;;;10453569;28;20033;-62
2021/03/26 14:56:09;;;;;;;35.55;5.53;;;18.40;65.70;;;;;;10468714;28;20142;-59
2021/03/26 15:01:31;;;;;;;35.30;6.50;;;18.40;65.90;;;;;;10470248;28;20512;-60
2021/03/26 15:06:38;;;;;;;24.02;4.47;;;18.30;65.60;;;;;;10469824;28;20033;-60
2021/03/26 15:11:38;;;;;;;11.77;3.95;;;18.30;65.50;;;;;;10466840;28;20025;-60
2021/03/26 15:17:06;;;;;;;25.63;4.53;;;18.20;65.70;;;;;;10486924;28;20028;-61
2021/03/26 15:22:46;;;;;;;21.90;3.85;;;18.20;65.50;;;;;;10452924;28;20055;-61
2021/03/26 15:28:12;;;;;;;19.52;3.83;;;18.20;64.90;;;;;;10453556;28;20029;-60
2021/03/26 15:33:30;;;;;;;11.88;3.17;;;18.20;64.90;;;;;;10443973;28;20397;-59
2021/03/26 15:39:20;;;;;;;13.15;3.42;;;18.10;64.60;;;;;;10467750;28;20029;-61
2021/03/26 15:44:34;;;;;;;15.90;3.85;;;18.10;64.20;;;;;;10469713;28;20029;-61
2021/03/26 15:49:50;;;;;;;36.65;4.82;;;18.10;65.00;;;;;;10452340;28;20166;-60
2021/03/26 15:55:34;;;;;;;18.40;4.53;;;18.10;64.90;;;;;;10456173;28;20025;-61
2021/03/26 16:00:50;;;;;;;18.70;3.42;;;18.10;65.00;;;;;;10469353;28;20071;-61
2021/03/26 16:06:29;;;;;;;8.73;3.45;;;18.00;65.70;;;;;;10469112;28;20369;-61
2021/03/26 16:12:12;;;;;;;13.18;3.05;;;18.00;65.80;;;;;;10461069;28;20040;-62
2021/03/26 16:17:21;;;;;;;23.33;3.80;;;18.10;65.60;;;;;;10461915;28;20537;-61
2021/03/26 16:22:46;;;;;;;;;;;18.10;65.80;;;;;;10485117;28;20049;-61
2021/03/26 16:28:19;;;;;;;17.63;4.15;;;18.10;65.90;;;;;;10450743;28;19912;-61
2021/03/26 16:34:02;;;;;;;14.48;3.75;;;18.10;66.00;;;;;;10462855;28;20063;-65
2021/03/26 16:39:40;;;;;;;11.85;2.78;;;18.10;65.60;;;;;;10492281;28;20029;-63
2021/03/26 16:45:02;;;;;;;19.25;3.25;;;18.10;64.30;;;;;;10454123;28;20036;-61
2021/03/26 16:50:41;;;;;;;17.58;4.03;;;18.00;63.70;;;;;;10458892;28;20119;-62
2021/03/26 16:55:42;;;;;;;22.52;3.13;;;18.00;61.20;;;;;;10469462;28;20033;-58
2021/03/26 17:01:26;;;;;;;17.70;3.65;;;18.10;61.70;;;;;;10471268;28;20029;-62
2021/03/26 17:06:56;;;;;;;12.07;4.93;;;18.10;61.60;;;;;;10463868;28;20155;-60
2021/03/26 17:12:40;;;;;;;14.45;7.53;;;18.10;60.40;;;;;;10485085;28;20035;-59
2021/03/26 17:18:23;;;;;;;15.88;7.07;;;18.20;63.20;;;;;;10471037;28;20466;-61
2021/03/26 17:24:14;;;;;;;15.25;7.05;;;18.30;65.10;;;;;;10488207;28;20110;-61
2021/03/26 17:29:40;;;;;;;14.10;6.37;;;18.30;64.00;;;;;;10470192;28;20037;-62
2021/03/26 17:35:15;;;;;;;14.98;6.70;;;18.30;63.70;;;;;;10463395;28;20291;-62
2021/03/26 17:41:02;;;;;;;14.93;5.60;;;18.30;63.30;;;;;;10477324;28;20063;-62
2021/03/26 17:46:49;;;;;;;17.98;5.63;;;18.30;62.40;;;;;;10502375;28;20043;-61
2021/03/26 17:52:29;;;;;;;13.23;4.38;;;18.20;61.90;;;;;;10486611;28;20060;-61
2021/03/26 17:58:22;;;;;;;10.77;4.82;;;18.20;61.90;;;;;;10459055;28;20033;-62
2021/03/26 18:03:51;;;;;;;9.20;4.65;;;18.10;61.90;;;;;;10498536;28;20097;-61
2021/03/26 18:09:24;;;;;;;9.23;4.78;;;18.10;61.90;;;;;;10476494;28;20032;-62
2021/03/26 18:14:53;;;;;;;11.60;4.25;;;18.10;61.90;;;;;;10460474;28;20121;-61
2021/03/26 18:20:47;;;;;;;9.70;3.80;;;18.10;61.80;;;;;;10455586;28;20043;-61
2021/03/26 18:26:34;;;;;;;11.65;4.40;;;18.10;61.80;;;;;;10470803;28;20091;-61
2021/03/26 18:32:04;;;;;;;9.27;3.72;;;18.10;61.70;;;;;;10464856;28;20033;-60
2021/03/26 18:37:23;;;;;;;9.95;3.65;;;18.10;61.80;;;;;;10467429;28;20039;-60
2021/03/26 18:43:02;;;;;;;9.32;3.40;;;18.10;61.10;;;;;;10465905;28;20087;-60
2021/03/26 18:48:18;;;;;;;9.70;3.25;;;18.10;61.10;;;;;;10447342;28;20151;-60
2021/03/26 18:54:07;;;;;;;6.85;3.10;;;18.10;61.20;;;;;;10449185;28;20048;-61
2021/03/26 18:59:59;;;;;;;6.40;3.00;;;18.20;61.20;;;;;;10443408;28;20040;-60
2021/03/26 19:05:25;;;;;;;6.68;2.88;;;18.20;61.20;;;;;;10446194;28;20139;-61
2021/03/26 19:10:47;;;;;;;8.15;3.08;;;18.20;61.10;;;;;;10447411;28;20043;-60
2021/03/26 19:16:07;;;;;;;9.73;2.70;;;18.20;61.00;;;;;;10446824;28;20087;-61
2021/03/26 19:21:42;;;;;;;6.65;2.58;;;18.20;61.00;;;;;;10452576;28;20057;-61
2021/03/26 19:26:59;;;;;;;6.82;2.13;;;18.20;60.90;;;;;;10447909;28;20063;-62
2021/03/26 19:32:19;;;;;;;7.45;2.78;;;18.20;60.90;;;;;;10469976;28;20079;-60
2021/03/26 19:37:27;;;;;;;9.02;2.28;;;18.20;61.00;;;;;;10460024;28;20037;-60
2021/03/26 19:42:59;;;;;;;8.95;2.08;;;18.20;60.90;;;;;;10452445;28;20025;-60
2021/03/26 19:48:55;;;;;;;10.18;2.85;;;18.30;61.00;;;;;;10442465;28;20030;-59
2021/03/26 19:54:12;;;;;;;8.02;2.85;;;18.20;61.30;;;;;;10420318;28;20048;-59
2021/03/26 19:59:24;;;;;;;6.63;2.60;;;18.20;61.50;;;;;;10454857;28;20033;-59
2021/03/26 20:04:51;;;;;;;7.90;2.60;;;18.20;61.50;;;;;;10446714;28;20033;-59
2021/03/26 20:10:19;;;;;;;6.60;2.22;;;18.10;61.70;;;;;;10451606;28;20029;-59
2021/03/26 20:15:25;;;;;;;6.05;2.72;;;18.10;61.80;;;;;;10454674;28;20477;-59
2021/03/26 20:20:44;;;;;;;11.45;2.20;;;18.10;62.10;;;;;;10454837;28;20382;-58
2021/03/26 20:26:04;;;;;;;5.28;1.92;;;18.00;62.40;;;;;;10458968;28;20121;-59
2021/03/26 20:31:29;;;;;;;6.90;2.20;;;18.00;62.60;;;;;;10462022;28;20040;-59
2021/03/26 20:37:02;;;;;;;4.43;2.28;;;18.00;63.00;;;;;;10446784;28;20178;-59
2021/03/26 20:42:28;;;;;;;7.53;2.38;;;18.00;63.10;;;;;;10446079;28;21065;-60
2021/03/26 20:47:45;;;;;;;4.30;2.33;;;18.00;62.80;;;;;;10462491;28;20036;-59
2021/03/26 20:53:05;;;;;;;5.15;2.03;;;18.00;62.40;;;;;;10481873;28;20064;-59
2021/03/26 20:58:46;;;;;;;4.95;1.92;;;18.00;62.30;;;;;;10482078;28;20058;-59
2021/03/26 21:03:51;;;;;;;5.70;1.90;;;18.00;62.20;;;;;;10490191;28;20082;-59
2021/03/26 21:09:11;;;;;;;4.93;1.90;;;17.90;62.20;;;;;;10469598;28;20119;-60
2021/03/26 21:14:28;;;;;;;;;;;17.90;62.30;;;;;;10460509;28;20035;-59
2021/03/26 21:20:03;;;;;;;5.97;2.17;;;17.90;62.30;;;;;;10480887;28;19917;-59
2021/03/26 21:25:28;;;;;;;3.13;1.48;;;17.80;62.30;;;;;;10493832;28;20048;-59
2021/03/26 21:31:05;;;;;;;4.85;1.40;;;17.90;62.30;;;;;;10467964;28;20044;-59
2021/03/26 21:36:31;;;;;;;3.22;1.90;;;17.80;62.20;;;;;;10459209;28;20017;-59
2021/03/26 21:41:35;;;;;;;5.30;2.25;;;17.80;62.20;;;;;;10450851;28;20036;-58
2021/03/26 21:47:17;;;;;;;4.18;1.52;;;17.80;62.20;;;;;;10457502;28;20537;-59
2021/03/26 21:53:00;;;;;;;3.25;1.67;;;17.80;62.20;;;;;;10475159;28;20128;-59
2021/03/26 21:58:18;;;;;;;3.95;1.77;;;17.70;62.00;;;;;;10467411;28;20354;-59
2021/03/26 22:03:42;;;;;;;4.57;2.72;;;17.70;61.90;;;;;;10489874;28;20036;-59
2021/03/26 22:09:37;;;;;;;3.20;1.40;;;17.70;61.90;;;;;;10474339;28;20060;-60
2021/03/26 22:15:14;;;;;;;3.22;1.30;;;17.70;61.90;;;;;;10458525;28;20078;-60
2021/03/26 22:20:42;;;;;;;4.47;1.55;;;17.70;61.60;;;;;;10478484;28;20021;-59
2021/03/26 22:25:43;;;;;;;3.42;2.13;;;17.70;61.50;;;;;;10457971;28;20086;-59
2021/03/26 22:31:21;;;;;;;2.17;1.77;;;17.70;61.30;;;;;;10470173;28;20036;-59
2021/03/26 22:36:53;;;;;;;3.45;1.60;;;17.70;61.30;;;;;;10461103;28;20028;-59
2021/03/26 22:42:05;;;;;;;2.90;1.30;;;17.70;61.20;;;;;;10475502;28;20087;-59
2021/03/26 22:47:38;;;;;;;4.88;1.52;;;17.70;61.00;;;;;;10481010;28;20032;-60
2021/03/26 22:53:15;;;;;;;2.38;1.58;;;17.70;61.00;;;;;;10496427;28;20039;-59
2021/03/26 22:58:23;;;;;;;3.00;1.23;;;17.70;60.90;;;;;;10456709;28;20420;-60
2021/03/26 23:03:54;;;;;;;2.72;1.10;;;17.70;60.80;;;;;;10467839;28;20032;-60
2021/03/26 23:09:23;;;;;;;2.08;1.10;;;17.70;60.70;;;;;;10496360;28;20036;-59
2021/03/26 23:14:33;;;;;;;2.25;1.20;;;17.80;60.60;;;;;;10479154;28;20029;-59
2021/03/26 23:19:58;;;;;;;;;;;17.70;60.50;;;;;;10483919;28;20054;-59
2021/03/26 23:25:30;;;;;;;2.40;1.05;;;17.70;60.40;;;;;;10459754;28;19917;-60
2021/03/26 23:30:47;;;;;;;2.80;1.35;;;17.80;60.50;;;;;;10474588;28;20102;-60
2021/03/26 23:35:55;;;;;;;1.95;1.13;;;17.70;60.40;;;;;;10452740;28;20033;-59
2021/03/26 23:41:09;;;;;;;2.78;1.30;;;17.80;60.40;;;;;;10454248;28;20083;-59
2021/03/26 23:46:32;;;;;;;2.00;1.30;;;17.70;60.30;;;;;;10458214;28;20032;-59
2021/03/26 23:51:46;;;;;;;2.38;1.40;;;17.70;60.30;;;;;;10487421;28;20051;-59
2021/03/26 23:56:51;;;;;;;2.53;1.20;;;17.70;60.30;;;;;;10454216;28;20108;-59
